»·PEaware :: SKW5330 KSFO-KMFR

SKW5330 :: KSFO-KMFR

FLIGHT INFORMATION

Flight Status: Arrived
Operator:
SkyWest Airlines
More flights by this operator :: More flights under this callsign
Pilot: Anonymous 11975 (11975)
Aircraft: CANADAIR CL-600 CRJ-700
(CRJ7)
More flights by this aircraft type
Origin: KSFO San Francisco Intl
United States
Destination: KMFR Rogue Valley Intl-Medford
United States
More flights between these airports :: More routes between these airports
Route: TRUKN2 GRTFL SAMIE
File this flight plan on PilotEdge
Remarks:
Altitude:
(Current/Filed)
30,000ft
Speed:
(Current/Filed)
406kts
Departed: 27-Aug-22 10:54 AM
Arrived: 27-Aug-22 11:41 AM
Distance/Time
Traveled:
286nm/0:47
Distance/Time
To Go:
Arrived

Flight Plot

Page will automatically refresh every two minutes.

Flight plan parsing failed; only flown route is shown


Map Options




Map Legend


Flown Route
Filed Route
Departure Airport
Arrival Airport
Navaid (VOR, NDB)
Fix

Horizontal Profiles

Position Reports

Time Latitude Longitude Heading Altitude Ground
Speed
27-Aug-22 10:30 37.620519 -122.386458 296 13ft 0kts
27-Aug-22 10:31 37.620519 -122.386458 296 13ft 0kts
27-Aug-22 10:32 37.620519 -122.386458 296 13ft 0kts
27-Aug-22 10:33 37.620519 -122.386458 296 13ft 0kts
27-Aug-22 10:34 37.620519 -122.386458 296 13ft 0kts
27-Aug-22 10:35 37.620519 -122.386458 296 13ft 0kts
27-Aug-22 10:36 37.620519 -122.386458 296 13ft 0kts
27-Aug-22 10:37 37.620519 -122.386458 296 13ft 0kts
27-Aug-22 10:38 37.620519 -122.386458 296 13ft 0kts
27-Aug-22 10:39 37.620519 -122.386458 296 13ft 0kts
27-Aug-22 10:40 37.620519 -122.386458 296 13ft 0kts
27-Aug-22 10:41 37.620519 -122.386458 296 13ft 0kts
27-Aug-22 10:42 37.620474 -122.386339 296 13ft 2kts
27-Aug-22 10:43 37.620184 -122.385989 31 13ft 0kts
27-Aug-22 10:44 37.620184 -122.385989 31 13ft 0kts
27-Aug-22 10:45 37.620184 -122.385989 31 13ft 0kts
27-Aug-22 10:46 37.620210 -122.385967 32 13ft 2kts
27-Aug-22 10:47 37.620487 -122.383977 117 19ft 12kts
27-Aug-22 10:48 37.617757 -122.379495 168 16ft 19kts
27-Aug-22 10:49 37.612467 -122.382408 207 14ft 20kts
27-Aug-22 10:50 37.609532 -122.384550 213 18ft 6kts
27-Aug-22 10:51 37.608469 -122.383877 117 20ft 0kts
27-Aug-22 10:52 37.608794 -122.382338 27 20ft 27kts
27-Aug-22 10:53 37.639138 -122.358494 63 1475ft 165kts
27-Aug-22 10:54 37.669181 -122.299124 52 3862ft 240kts
27-Aug-22 10:55 37.716561 -122.226181 33 6799ft 287kts
27-Aug-22 10:56 37.797391 -122.215847 358 10212ft 304kts
27-Aug-22 10:57 37.891437 -122.219354 357 12539ft 359kts
27-Aug-22 10:58 37.993420 -122.221958 357 15816ft 375kts
27-Aug-22 10:59 38.100773 -122.224457 356 18883ft 395kts
27-Aug-22 11:00 38.212781 -122.227849 356 21688ft 410kts
27-Aug-22 11:01 38.329147 -122.230615 356 24126ft 426kts
27-Aug-22 11:02 38.448397 -122.246820 348 26090ft 437kts
27-Aug-22 11:03 38.570279 -122.269669 348 27884ft 448kts
27-Aug-22 11:04 38.695485 -122.290824 348 29537ft 459kts
27-Aug-22 11:05 38.825246 -122.313233 347 29896ft 483kts
27-Aug-22 11:06 38.958612 -122.336608 347 29894ft 483kts
27-Aug-22 11:07 39.092028 -122.360090 347 29844ft 483kts
27-Aug-22 11:08 39.225513 -122.383662 347 29857ft 484kts
27-Aug-22 11:09 39.359607 -122.406903 347 29867ft 487kts
27-Aug-22 11:10 39.494296 -122.430942 347 29889ft 489kts
27-Aug-22 11:11 39.629537 -122.454968 347 29856ft 490kts
27-Aug-22 11:12 39.764252 -122.478994 347 29865ft 491kts
27-Aug-22 11:13 39.899697 -122.503018 347 29869ft 491kts
27-Aug-22 11:14 40.034959 -122.527031 347 29856ft 489kts
27-Aug-22 11:15 40.169542 -122.551488 347 29875ft 487kts
27-Aug-22 11:16 40.303372 -122.576084 349 29873ft 483kts
27-Aug-22 11:17 40.436217 -122.599526 350 29857ft 479kts
27-Aug-22 11:18 40.567208 -122.623791 351 29857ft 474kts
27-Aug-22 11:19 40.697417 -122.647384 351 29847ft 469kts
27-Aug-22 11:20 40.826251 -122.671168 352 29880ft 465kts
27-Aug-22 11:21 40.953654 -122.694906 354 29898ft 459kts
27-Aug-22 11:22 41.079774 -122.718029 354 29930ft 455kts
27-Aug-22 11:23 41.202619 -122.741305 354 28344ft 439kts
27-Aug-22 11:24 41.323381 -122.763411 354 25870ft 446kts
27-Aug-22 11:25 41.446701 -122.786634 353 23158ft 442kts
27-Aug-22 11:26 41.567301 -122.808808 352 20230ft 431kts
27-Aug-22 11:27 41.683446 -122.831093 351 17400ft 415kts
27-Aug-22 11:28 41.796678 -122.852905 351 14496ft 401kts
27-Aug-22 11:29 41.901569 -122.872357 350 11696ft 382kts
27-Aug-22 11:30 42.001928 -122.893226 349 10121ft 329kts
27-Aug-22 11:31 42.082214 -122.910906 349 9944ft 282kts
27-Aug-22 11:32 42.162774 -122.928910 349 9979ft 298kts
27-Aug-22 11:33 42.243480 -122.947108 349 9638ft 293kts
27-Aug-22 11:34 42.323244 -122.965690 349 8177ft 286kts
27-Aug-22 11:35 42.397255 -122.983611 349 6780ft 244kts
27-Aug-22 11:36 42.454581 -122.991377 34 5500ft 194kts
27-Aug-22 11:37 42.463575 -122.927060 95 3777ft 162kts
27-Aug-22 11:38 42.426190 -122.900395 160 2257ft 151kts
27-Aug-22 11:39 42.388404 -122.880335 159 1401ft 142kts
27-Aug-22 11:40 42.367620 -122.869517 178 1329ft 21kts
27-Aug-22 11:41 42.368618 -122.871577 339 1323ft 7kts
27-Aug-22 11:42 42.368644 -122.873161 246 1322ft 0kts
27-Aug-22 11:43 42.368644 -122.873161 246 1322ft 0kts
27-Aug-22 11:44 42.368644 -122.873161 246 1322ft 0kts

Navigation Log

Ident Type
Flight plan parsing failed, navigation log unavailable